Norwegian Spirit — C6TQ6 — position and weather

sailwx.info

Track history (hours):
 
Tides and Currents Weather Stations Pressure Air Temp Water Temp Dewpoint Dewpoint Depression Visibility Wind Speed Wind Dir Waves Ship Positions

Norwegian Spirit

Operator: Norwegian Cruise Line

Last reported at 2018-Jun-22 07:30 UTC. Time now 2018-Jun-22 07:40 UTC.
Position N 45°33' E 013°44'.

Type: Passenger vessel. MMSI: 311746000.

Date/timePositionNaut miles runAvg speedWind from/ knotsBaromVisibWave heightAir tempDewpointWater temp
2018-Jun-22 07:30N 45°33' E 013°44'0 0.0
2018-Jun-22 07:00N 45°33' E 013°44'0 0.0
2018-Jun-22 06:24N 45°33' E 013°44'0 0.0
2018-Jun-22 06:00N 45°33' E 013°44'3267.3
2018-Jun-22 06:00N 45°30' E 013°42'3 5.7 090 / 101017.0 5.4 20.016.922.0
2018-Jun-22 05:24N 45°33' E 013°44'0 0.0
2018-Jun-22 05:00N 45°33' E 013°44'2 3.7
2018-Jun-22 04:30N 45°34' E 013°42'4 7.2
2018-Jun-22 04:00N 45°34' E 013°37'4 7.4
2018-Jun-22 03:30N 45°34' E 013°31'4 7.7
2018-Jun-22 03:00N 45°32' E 013°27'4 8.7
2018-Jun-22 02:30N 45°29' E 013°22'4 7.7
2018-Jun-22 02:00N 45°27' E 013°17'4 7.4
2018-Jun-22 01:30N 45°24' E 013°14'3 6.7
2018-Jun-22 01:00N 45°21' E 013°11'5309.3
2018-Jun-22 01:00N 45°18' E 013°06'5 9.4 090 / 191011.0 25.019.126.0
2018-Jun-22 00:30N 45°18' E 013°12'4 7.3
2018-Jun-22 00:00N 45°14' E 013°14'4 7.4
2018-Jun-21 23:30N 45°11' E 013°15'3 7.0
2018-Jun-21 23:00N 45°08' E 013°12'2105.8
2018-Jun-21 23:00N 45°06' E 013°12'4 7.8 150 / 181011.0 27.022.824.0
2018-Jun-21 22:30N 45°06' E 013°07'4 7.6
2018-Jun-21 22:00N 45°10' E 013°04'4 7.6
2018-Jun-21 21:30N 45°13' E 013°02'4 7.5
2018-Jun-21 21:00N 45°17' E 013°01'5299.9
2018-Jun-21 21:00N 45°12' E 013°00'817.5 190 / 161020.0 25.0
2018-Jun-21 20:30N 45°20' E 012°59'4 7.2
2018-Jun-21 20:00N 45°21' E 012°54'4 8.0
2018-Jun-21 19:30N 45°22' E 012°49'4 8.0
2018-Jun-21 19:00N 45°22' E 012°43'4243.0
2018-Jun-21 19:00N 45°18' E 012°42'510.1 170 / 201020.0 5.4 26.021.726.0
2018-Jun-21 18:30N 45°22' E 012°38'4 7.7
2018-Jun-21 18:00N 45°22' E 012°32'4 7.7
2018-Jun-21 17:31N 45°24' E 012°28'4 7.9
2018-Jun-21 17:00N 45°26' E 012°23'2 4.8
2018-Jun-21 16:31N 45°26' E 012°19'1 1.3
2018-Jun-21 15:58N 45°26' E 012°19'0 0.0
2018-Jun-21 15:28N 45°26' E 012°19'0 0.0
2018-Jun-21 14:58N 45°26' E 012°19'0 0.0
2018-Jun-21 14:28N 45°26' E 012°19'0 0.0
2018-Jun-21 13:58N 45°26' E 012°19'0 0.0
2018-Jun-21 13:28N 45°26' E 012°19'0 0.0
2018-Jun-21 12:58N 45°26' E 012°19'0 0.0
2018-Jun-21 12:28N 45°26' E 012°19'0 0.0
2018-Jun-21 11:58N 45°26' E 012°19'0 0.0
2018-Jun-21 11:28N 45°26' E 012°19'0 0.0
2018-Jun-21 10:58N 45°26' E 012°19'0 0.0
2018-Jun-21 10:28N 45°26' E 012°19'0 0.0
2018-Jun-21 09:58N 45°26' E 012°19'0 0.0
2018-Jun-21 09:28N 45°26' E 012°19'0 0.0
2018-Jun-21 08:52N 45°26' E 012°19'0 0.0
2018-Jun-21 08:28N 45°26' E 012°19'0 0.0
2018-Jun-21 07:58N 45°26' E 012°19'0 0.0
2018-Jun-21 07:28N 45°26' E 012°19'0 0.0
2018-Jun-21 06:58N 45°26' E 012°19'0 0.0
2018-Jun-21 06:28N 45°26' E 012°19'2 4.8
2018-Jun-21 06:00N 45°24' E 012°18'273.0 360 / 91024.0 5.4 26.021.726.0
2018-Jun-21 05:58N 45°26' E 012°19'0 0.0
2018-Jun-21 05:28N 45°26' E 012°19'0 0.0
2018-Jun-21 04:58N 45°26' E 012°19'0 0.0
2018-Jun-21 04:28N 45°26' E 012°19'2 4.8
2018-Jun-21 04:00N 45°24' E 012°18'275.7 270 / 121024.0 5.4 25.022.224.0
2018-Jun-21 03:58N 45°26' E 012°19'0 0.0
2018-Jun-21 03:28N 45°26' E 012°19'0 0.0
2018-Jun-21 02:58N 45°26' E 012°19'0 0.0
2018-Jun-21 02:28N 45°26' E 012°19'0 0.0
2018-Jun-21 01:55N 45°26' E 012°19'0 0.0
2018-Jun-21 01:22N 45°26' E 012°19'0 0.0
2018-Jun-21 00:58N 45°26' E 012°19'0 0.0
2018-Jun-21 00:28N 45°26' E 012°19'0 0.0
2018-Jun-20 23:58N 45°26' E 012°19'0 0.0
2018-Jun-20 23:28N 45°26' E 012°19'0 0.0
2018-Jun-20 22:58N 45°26' E 012°19'0 0.0
2018-Jun-20 22:28N 45°26' E 012°19'0 0.0
2018-Jun-20 21:58N 45°26' E 012°19'0 0.0
2018-Jun-20 21:28N 45°26' E 012°19'0 0.0
2018-Jun-20 20:58N 45°26' E 012°19'0 0.0
2018-Jun-20 20:28N 45°26' E 012°19'0 0.0
2018-Jun-20 19:58N 45°26' E 012°19'0 0.0
2018-Jun-20 19:28N 45°26' E 012°19'0 0.0
2018-Jun-20 18:58N 45°26' E 012°19'0 0.0
2018-Jun-20 18:28N 45°26' E 012°19'2 4.8
2018-Jun-20 18:00N 45°24' E 012°18'273.7 180 / 51028.0 5.4 33.027.833.0
2018-Jun-20 17:58N 45°26' E 012°19'0 0.0
2018-Jun-20 17:28N 45°26' E 012°19'0 0.0
2018-Jun-20 16:58N 45°26' E 012°19'0 0.0
2018-Jun-20 16:28N 45°26' E 012°19'2 4.8
2018-Jun-20 16:00N 45°24' E 012°18'227.7 190 / 51028.0 5.4 32.028.131.0
2018-Jun-20 15:55N 45°26' E 012°19'0 0.0
2018-Jun-20 15:28N 45°26' E 012°19'0 0.0
2018-Jun-20 14:58N 45°26' E 012°19'0 0.0
2018-Jun-20 14:28N 45°26' E 012°19'0 0.0
2018-Jun-20 13:58N 45°26' E 012°19'0 0.0
2018-Jun-20 13:28N 45°26' E 012°19'0 0.0
2018-Jun-20 12:58N 45°26' E 012°19'0 0.0
2018-Jun-20 12:28N 45°26' E 012°19'0 0.0
2018-Jun-20 11:58N 45°26' E 012°19'0 0.0
2018-Jun-20 11:28N 45°26' E 012°19'0 0.0
2018-Jun-20 10:58N 45°26' E 012°19'0 0.0
2018-Jun-20 10:28N 45°26' E 012°19'0 0.0
2018-Jun-20 09:58N 45°26' E 012°19'0 0.2
2018-Jun-20 09:30N 45°26' E 012°19'1 2.1
2018-Jun-20 09:00N 45°26' E 012°20'2 4.9
2018-Jun-20 08:31N 45°26' E 012°23'4 8.7
2018-Jun-20 08:00N 45°24' E 012°29'713.3
2018-Jun-20 07:30N 45°18' E 012°32'816.6
2018-Jun-20 07:01N 45°12' E 012°41'816.9
2018-Jun-20 06:31N 45°08' E 012°51'817.0
2018-Jun-20 06:01N 45°03' E 013°01'4213.5
2018-Jun-20 06:00N 45°00' E 013°00'917.4 060 / 151027.0 5.4 25.019.124.0
2018-Jun-20 05:30N 44°59' E 013°12'917.4
2018-Jun-20 05:01N 44°55' E 013°22'917.4
2018-Jun-20 04:30N 44°47' E 013°29'917.5
2018-Jun-20 04:00N 44°40' E 013°36'5274.6
2018-Jun-20 04:00N 44°42' E 013°30'1327.6 060 / 271024.0 5.4 25.020.724.0
2018-Jun-20 03:31N 44°32' E 013°43'1220.6
2018-Jun-20 02:57N 44°23' E 013°52'920.8
2018-Jun-20 02:30N 44°15' E 013°59'3020.0
2018-Jun-20 01:00N 43°48' E 014°18'4321.4 030 / 81018.0 28.025.325.0
2018-Jun-19 23:00N 43°18' E 015°00'3617.8 030 / 231017.0 27.022.824.0
2018-Jun-19 21:00N 42°54' E 015°36'4421.8 020 / 131024.0 5.4 23.018.525.0
2018-Jun-19 19:00N 42°36' E 016°30'3115.5
2018-Jun-19 17:00N 42°36' E 017°12'82 5.1 360 / 161022.0 5.4 26.020.224.0
2018-Jun-19 01:00N 41°30' E 018°18'3618.1 080 / 291011.0 27.021.326.0
2018-Jun-18 23:00N 40°54' E 018°24'1918.6 350 / 141011.0 27.025.626.0
2018-Jun-18 22:00N 40°36' E 018°30'4816.0 360 / 131018.0 2.2 25.020.725.0
2018-Jun-18 19:00N 39°48' E 018°30'1312.9 010 / 131017.0 2.2 25.020.725.0
2018-Jun-18 18:00N 39°36' E 018°24'3316.7 320 / 101017.0 5.4 24.019.624.0
2018-Jun-18 16:00N 39°12' E 017°54'4916.2 280 / 61018.0 5.4 24.021.124.0
2018-Jun-18 13:00N 38°36' E 017°12'1918.5 280 / 61011.0 28.026.724.0
2018-Jun-18 12:00N 38°24' E 016°54'1918.5 290 / 171011.0 28.026.724.0
2018-Jun-18 11:00N 38°12' E 016°36'3918.1 290 / 171011.0 28.026.724.0
2018-Jun-18 08:49N 37°52' E 015°53'619.8
2018-Jun-18 08:30N 37°52' E 015°45'918.2
2018-Jun-18 08:00N 37°58' E 015°37'1020.5
2018-Jun-18 07:30N 38°08' E 015°35'714.7
2018-Jun-18 07:01N 38°15' E 015°38'713.1
2018-Jun-18 06:30N 38°22' E 015°39'816.5
2018-Jun-18 06:00N 38°29' E 015°35'917.9
2018-Jun-18 05:30N 38°37' E 015°29'1018.8
2018-Jun-18 04:58N 38°46' E 015°23'20 9.9
2018-Jun-18 03:00N 39°00' E 015°06'5929.6 290 / 91020.0 5.4 23.018.522.0
2018-Jun-18 01:00N 39°42' E 014°12'1127.6 300 / 121020.0 25.023.625.0
2018-Jun-18 00:35N 39°52' E 014°05'2220.2
2018-Jun-17 23:29N 40°07' E 013°44'1223.6
2018-Jun-17 23:00N 40°12' E 013°30'623.1 280 / 101012.0 25.023.624.0
2018-Jun-17 22:43N 40°18' E 013°29'420.5
2018-Jun-17 22:30N 40°21' E 013°25'1020.5
2018-Jun-17 22:00N 40°29' E 013°16'1220.4
2018-Jun-17 21:25N 40°37' E 013°05'819.7
2018-Jun-17 21:00N 40°36' E 012°54'1434.3 290 / 131020.0 23.020.124.0
2018-Jun-17 20:36N 40°49' E 012°49'220.6
2018-Jun-17 20:29N 40°51' E 012°47'1020.6
2018-Jun-17 19:59N 40°59' E 012°39'1120.9
2018-Jun-17 19:27N 41°08' E 012°30'1022.2
2018-Jun-17 19:00N 41°12' E 012°18'2020.1 330 / 20 23.018.5
2018-Jun-17 18:00N 41°30' E 012°06'11 0.6 300 / 211020.0 5.4 25.020.724.0
2018-Jun-17 01:00N 41°36' E 011°54'823.5 020 / 81011.0 23.021.624.0
2018-Jun-17 00:40N 41°34' E 012°04'317.3
2018-Jun-17 00:31N 41°32' E 012°06'2617.5
2018-Jun-16 23:00N 41°12' E 012°30'2916.9 290 / 151011.0 24.022.623.0
2018-Jun-16 21:16N 41°03' E 013°07'416.9
2018-Jun-16 21:00N 41°00' E 013°12'4273.3
2018-Jun-16 21:00N 41°00' E 013°06'1224.3
2018-Jun-16 20:30N 40°56' E 013°21'816.5
2018-Jun-16 20:00N 40°52' E 013°30'816.6
2018-Jun-16 19:31N 40°46' E 013°38'816.5
2018-Jun-16 19:01N 40°40' E 013°46'5312.4
2018-Jun-16 19:00N 40°36' E 013°42'1021.2 330 / 131018.0 26.023.224.0
2018-Jun-16 18:31N 40°37' E 013°55'816.4
2018-Jun-16 18:01N 40°40' E 014°06'816.2
2018-Jun-16 17:31N 40°45' E 014°13'510.5
2018-Jun-16 17:00N 40°50' E 014°16'0 0.3
2018-Jun-16 16:25N 40°50' E 014°16'0 0.0
2018-Jun-16 15:55N 40°50' E 014°16'0 0.0
2018-Jun-16 15:25N 40°50' E 014°16'0 0.0
2018-Jun-16 14:55N 40°50' E 014°16'0 0.0
2018-Jun-16 14:25N 40°50' E 014°16'0 0.0
2018-Jun-16 13:55N 40°50' E 014°16'0 0.0
2018-Jun-16 13:25N 40°50' E 014°16'0 0.0
2018-Jun-16 12:55N 40°50' E 014°16'0 0.0
2018-Jun-16 12:25N 40°50' E 014°16'0 0.0
2018-Jun-16 11:55N 40°50' E 014°16'0 0.0
2018-Jun-16 11:25N 40°50' E 014°16'0 0.0
2018-Jun-16 10:55N 40°50' E 014°16'0 0.0
2018-Jun-16 10:25N 40°50' E 014°16'0 0.0
2018-Jun-16 09:55N 40°50' E 014°16'0 0.0
2018-Jun-16 09:25N 40°50' E 014°16'0 0.0
2018-Jun-16 08:55N 40°50' E 014°16'0 0.0
2018-Jun-16 08:25N 40°50' E 014°16'0 0.0
2018-Jun-16 07:55N 40°50' E 014°16'0 0.0
2018-Jun-16 07:25N 40°50' E 014°16'0 0.0
2018-Jun-16 06:55N 40°50' E 014°16'0 0.0
2018-Jun-16 06:25N 40°50' E 014°16'0 0.0
2018-Jun-16 05:55N 40°50' E 014°16'0 0.0
2018-Jun-16 05:25N 40°50' E 014°16'4 8.3
2018-Jun-16 05:00N 40°48' E 014°12'456.0 080 / 51016.0 5.4 26.020.221.0
2018-Jun-16 04:56N 40°50' E 014°16'0 0.1
2018-Jun-16 04:31N 40°50' E 014°16'2 3.2
2018-Jun-16 04:00N 40°49' E 014°17'713.7
2018-Jun-16 03:30N 40°42' E 014°17'713.9
2018-Jun-16 03:01N 40°35' E 014°17'714.3
2018-Jun-16 02:29N 40°28' E 014°21'715.1
2018-Jun-16 02:00N 40°22' E 014°25'715.0
2018-Jun-16 01:30N 40°15' E 014°29'814.9
2018-Jun-16 01:00N 40°08' E 014°33'3416.9
2018-Jun-15 23:00N 39°36' E 014°48'4813.6 320 / 91016.0 24.019.624.0
2018-Jun-15 19:29N 38°55' E 015°19'714.9
2018-Jun-15 19:00N 38°48' E 015°23'714.6
2018-Jun-15 18:30N 38°42' E 015°27'612.3
2018-Jun-15 18:00N 38°36' E 015°30'2256.6 310 / 141015.0 5.4 23.018.523.0
2018-Jun-15 17:59N 38°35' E 015°32'714.6
2018-Jun-15 17:30N 38°29' E 015°37'814.8
2018-Jun-15 17:00N 38°23' E 015°41'712.8
2018-Jun-15 16:28N 38°16' E 015°41'714.5
2018-Jun-15 15:59N 38°12' E 015°34'0 0.1
2018-Jun-15 13:02N 38°12' E 015°33'0 0.0
2018-Jun-15 12:38N 38°12' E 015°33'0 0.0
2018-Jun-15 12:26N 38°12' E 015°33'0 0.0
2018-Jun-15 11:50N 38°12' E 015°33'0 0.0
2018-Jun-15 11:26N 38°12' E 015°33'3 0.5
2018-Jun-15 06:00N 38°12' E 015°30'3 5.7 270 / 61014.0 5.4 23.018.523.0
2018-Jun-15 05:30N 38°12' E 015°33'1 1.4
2018-Jun-15 05:00N 38°12' E 015°34'4 7.6
2018-Jun-15 04:31N 38°09' E 015°37'815.2
2018-Jun-15 04:01N 38°02' E 015°35'915.5
2018-Jun-15 03:24N 37°52' E 015°34'1015.5
2018-Jun-15 02:45N 37°42' E 015°34'416.0
2018-Jun-15 02:30N 37°38' E 015°33'1316.1
2018-Jun-15 01:42N 37°25' E 015°32'416.2
2018-Jun-15 01:28N 37°22' E 015°32'1020.3
2018-Jun-15 01:00N 37°12' E 015°30'2204.7 290 / 171011.0 22.020.523.0
2018-Jun-15 00:59N 37°14' E 015°31'4623.3
2018-Jun-14 23:00N 36°30' E 015°12'19 9.4 330 / 271015.0 23.018.521.0
2018-Jun-14 21:00N 36°18' E 014°54'31 6.2 330 / 271015.0 23.018.521.0
2018-Jun-14 16:00N 35°54' E 014°30'34 4.3 270 / 131016.0 5.4 24.019.621.0
2018-Jun-14 08:00N 35°54' E 015°12'3919.4 320 / 321008.0 23.0 23.0
2018-Jun-14 06:00N 35°54' E 016°00'4421.9 1014.0 5.4 23.018.523.0
2018-Jun-14 04:00N 35°54' E 016°54'5317.8 310 / 301015.0 5.4 23.018.523.0
2018-Jun-14 01:00N 35°54' E 018°00'5417.9 280 / 141007.0 24.022.624.0
2018-Jun-13 22:00N 35°48' E 019°06'2424.3 300 / 201007.0 26.024.625.0
2018-Jun-13 21:00N 35°48' E 019°36'4421.9
2018-Jun-13 19:00N 35°48' E 020°30'4421.9 330 / 131013.0 24.019.624.0
2018-Jun-13 17:00N 35°48' E 021°24'4422.1
2018-Jun-13 15:00N 35°42' E 022°18'5622.5 300 / 261018.0 5.4 26.018.626.0
2018-Jun-13 12:30N 35°44' E 023°27'714.7
2018-Jun-13 12:00N 35°42' E 023°36'645.6 1012.0 27.025.625.0
2018-Jun-13 11:51N 35°44' E 023°43'719.9
2018-Jun-13 11:30N 35°42' E 023°51'1019.5
2018-Jun-13 10:59N 35°40' E 024°04'1020.3
2018-Jun-13 10:30N 35°38' E 024°15'815.2
2018-Jun-13 10:00N 35°31' E 024°16'15 2.4
2018-Jun-13 04:00N 35°24' E 024°00'11 7.4 260 / 41014.0 5.4 24.019.624.0
2018-Jun-13 02:29N 35°29' E 024°12'3 7.5
2018-Jun-13 02:01N 35°31' E 024°16'3 6.5
2018-Jun-13 01:30N 35°33' E 024°19'3 6.7
2018-Jun-13 01:00N 35°35' E 024°22'3 6.6
2018-Jun-13 00:30N 35°38' E 024°25'3 6.5
2018-Jun-13 00:01N 35°40' E 024°27'4 6.4
2018-Jun-12 23:22N 35°44' E 024°30'2 6.5
2018-Jun-12 23:00N 35°45' E 024°32'3 6.6
2018-Jun-12 22:29N 35°48' E 024°34'3 6.8
2018-Jun-12 22:01N 35°51' E 024°37'3165.4
2018-Jun-12 22:00N 35°48' E 024°36'28 5.6 310 / 101015.0 25.022.224.0
2018-Jun-12 17:00N 36°12' E 024°54'11 5.7 320 / 131014.0 5.4 24.019.624.0
2018-Jun-12 15:00N 36°18' E 025°06'   330 / 191014.0 5.4 24.019.624.0
Track history (hours):
 
Tides and Currents Weather Stations Pressure Air Temp Water Temp Dewpoint Dewpoint Depression Visibility Wind Speed Wind Dir Waves Ship Positions

Norwegian Spirit

Operator: Norwegian Cruise Line

Last reported at 2018-Jun-22 07:30 UTC. Time now 2018-Jun-22 07:40 UTC.
Position N 45°33' E 013°44'.

Type: Passenger vessel. MMSI: 311746000.

Date/timePositionNaut miles runAvg speedWind from/ knotsBaromVisibWave heightAir tempDewpointWater temp
2018-Jun-22 07:30N 45°33' E 013°44'0 0.0
2018-Jun-22 07:00N 45°33' E 013°44'0 0.0
2018-Jun-22 06:24N 45°33' E 013°44'0 0.0
2018-Jun-22 06:00N 45°33' E 013°44'3267.3
2018-Jun-22 06:00N 45°30' E 013°42'3 5.7 090 / 101017.0 5.4 20.016.922.0
2018-Jun-22 05:24N 45°33' E 013°44'0 0.0
2018-Jun-22 05:00N 45°33' E 013°44'2 3.7
2018-Jun-22 04:30N 45°34' E 013°42'4 7.2
2018-Jun-22 04:00N 45°34' E 013°37'4 7.4
2018-Jun-22 03:30N 45°34' E 013°31'4 7.7
2018-Jun-22 03:00N 45°32' E 013°27'4 8.7
2018-Jun-22 02:30N 45°29' E 013°22'4 7.7
2018-Jun-22 02:00N 45°27' E 013°17'4 7.4
2018-Jun-22 01:30N 45°24' E 013°14'3 6.7
2018-Jun-22 01:00N 45°21' E 013°11'5309.3
2018-Jun-22 01:00N 45°18' E 013°06'5 9.4 090 / 191011.0 25.019.126.0
2018-Jun-22 00:30N 45°18' E 013°12'4 7.3
2018-Jun-22 00:00N 45°14' E 013°14'4 7.4
2018-Jun-21 23:30N 45°11' E 013°15'3 7.0
2018-Jun-21 23:00N 45°08' E 013°12'2105.8
2018-Jun-21 23:00N 45°06' E 013°12'4 7.8 150 / 181011.0 27.022.824.0
2018-Jun-21 22:30N 45°06' E 013°07'4 7.6
2018-Jun-21 22:00N 45°10' E 013°04'4 7.6
2018-Jun-21 21:30N 45°13' E 013°02'4 7.5
2018-Jun-21 21:00N 45°17' E 013°01'5299.9
2018-Jun-21 21:00N 45°12' E 013°00'817.5 190 / 161020.0 25.0
2018-Jun-21 20:30N 45°20' E 012°59'4 7.2
2018-Jun-21 20:00N 45°21' E 012°54'4 8.0
2018-Jun-21 19:30N 45°22' E 012°49'4 8.0
2018-Jun-21 19:00N 45°22' E 012°43'4243.0
2018-Jun-21 19:00N 45°18' E 012°42'510.1 170 / 201020.0 5.4 26.021.726.0
2018-Jun-21 18:30N 45°22' E 012°38'4 7.7
2018-Jun-21 18:00N 45°22' E 012°32'4 7.7
2018-Jun-21 17:31N 45°24' E 012°28'4 7.9
2018-Jun-21 17:00N 45°26' E 012°23'2 4.8
2018-Jun-21 16:31N 45°26' E 012°19'1 1.3
2018-Jun-21 15:58N 45°26' E 012°19'0 0.0
2018-Jun-21 15:28N 45°26' E 012°19'0 0.0
2018-Jun-21 14:58N 45°26' E 012°19'0 0.0
2018-Jun-21 14:28N 45°26' E 012°19'0 0.0
2018-Jun-21 13:58N 45°26' E 012°19'0 0.0
2018-Jun-21 13:28N 45°26' E 012°19'0 0.0
2018-Jun-21 12:58N 45°26' E 012°19'0 0.0
2018-Jun-21 12:28N 45°26' E 012°19'0 0.0
2018-Jun-21 11:58N 45°26' E 012°19'0 0.0
2018-Jun-21 11:28N 45°26' E 012°19'0 0.0
2018-Jun-21 10:58N 45°26' E 012°19'0 0.0
2018-Jun-21 10:28N 45°26' E 012°19'0 0.0
2018-Jun-21 09:58N 45°26' E 012°19'0 0.0
2018-Jun-21 09:28N 45°26' E 012°19'0 0.0
2018-Jun-21 08:52N 45°26' E 012°19'0 0.0
2018-Jun-21 08:28N 45°26' E 012°19'0 0.0
2018-Jun-21 07:58N 45°26' E 012°19'0 0.0
2018-Jun-21 07:28N 45°26' E 012°19'0 0.0
2018-Jun-21 06:58N 45°26' E 012°19'0 0.0
2018-Jun-21 06:28N 45°26' E 012°19'2 4.8
2018-Jun-21 06:00N 45°24' E 012°18'273.0 360 / 91024.0 5.4 26.021.726.0
2018-Jun-21 05:58N 45°26' E 012°19'0 0.0
2018-Jun-21 05:28N 45°26' E 012°19'0 0.0
2018-Jun-21 04:58N 45°26' E 012°19'0 0.0
2018-Jun-21 04:28N 45°26' E 012°19'2 4.8
2018-Jun-21 04:00N 45°24' E 012°18'275.7 270 / 121024.0 5.4 25.022.224.0
2018-Jun-21 03:58N 45°26' E 012°19'0 0.0
2018-Jun-21 03:28N 45°26' E 012°19'0 0.0
2018-Jun-21 02:58N 45°26' E 012°19'0 0.0
2018-Jun-21 02:28N 45°26' E 012°19'0 0.0
2018-Jun-21 01:55N 45°26' E 012°19'0 0.0
2018-Jun-21 01:22N 45°26' E 012°19'0 0.0
2018-Jun-21 00:58N 45°26' E 012°19'0 0.0
2018-Jun-21 00:28N 45°26' E 012°19'0 0.0
2018-Jun-20 23:58N 45°26' E 012°19'0 0.0
2018-Jun-20 23:28N 45°26' E 012°19'0 0.0
2018-Jun-20 22:58N 45°26' E 012°19'0 0.0
2018-Jun-20 22:28N 45°26' E 012°19'0 0.0
2018-Jun-20 21:58N 45°26' E 012°19'0 0.0
2018-Jun-20 21:28N 45°26' E 012°19'0 0.0
2018-Jun-20 20:58N 45°26' E 012°19'0 0.0
2018-Jun-20 20:28N 45°26' E 012°19'0 0.0
2018-Jun-20 19:58N 45°26' E 012°19'0 0.0
2018-Jun-20 19:28N 45°26' E 012°19'0 0.0
2018-Jun-20 18:58N 45°26' E 012°19'0 0.0
2018-Jun-20 18:28N 45°26' E 012°19'2 4.8
2018-Jun-20 18:00N 45°24' E 012°18'273.7 180 / 51028.0 5.4 33.027.833.0
2018-Jun-20 17:58N 45°26' E 012°19'0 0.0
2018-Jun-20 17:28N 45°26' E 012°19'0 0.0
2018-Jun-20 16:58N 45°26' E 012°19'0 0.0
2018-Jun-20 16:28N 45°26' E 012°19'2 4.8
2018-Jun-20 16:00N 45°24' E 012°18'227.7 190 / 51028.0 5.4 32.028.131.0
2018-Jun-20 15:55N 45°26' E 012°19'0 0.0
2018-Jun-20 15:28N 45°26' E 012°19'0 0.0
2018-Jun-20 14:58N 45°26' E 012°19'0 0.0
2018-Jun-20 14:28N 45°26' E 012°19'0 0.0
2018-Jun-20 13:58N 45°26' E 012°19'0 0.0
2018-Jun-20 13:28N 45°26' E 012°19'0 0.0
2018-Jun-20 12:58N 45°26' E 012°19'0 0.0
2018-Jun-20 12:28N 45°26' E 012°19'0 0.0
2018-Jun-20 11:58N 45°26' E 012°19'0 0.0
2018-Jun-20 11:28N 45°26' E 012°19'0 0.0
2018-Jun-20 10:58N 45°26' E 012°19'0 0.0
2018-Jun-20 10:28N 45°26' E 012°19'0 0.0
2018-Jun-20 09:58N 45°26' E 012°19'0 0.2
2018-Jun-20 09:30N 45°26' E 012°19'1 2.1
2018-Jun-20 09:00N 45°26' E 012°20'2 4.9
2018-Jun-20 08:31N 45°26' E 012°23'4 8.7
2018-Jun-20 08:00N 45°24' E 012°29'713.3
2018-Jun-20 07:30N 45°18' E 012°32'816.6
2018-Jun-20 07:01N 45°12' E 012°41'816.9
2018-Jun-20 06:31N 45°08' E 012°51'817.0
2018-Jun-20 06:01N 45°03' E 013°01'4213.5
2018-Jun-20 06:00N 45°00' E 013°00'917.4 060 / 151027.0 5.4 25.019.124.0
2018-Jun-20 05:30N 44°59' E 013°12'917.4
2018-Jun-20 05:01N 44°55' E 013°22'917.4
2018-Jun-20 04:30N 44°47' E 013°29'917.5
2018-Jun-20 04:00N 44°40' E 013°36'5274.6
2018-Jun-20 04:00N 44°42' E 013°30'1327.6 060 / 271024.0 5.4 25.020.724.0
2018-Jun-20 03:31N 44°32' E 013°43'1220.6
2018-Jun-20 02:57N 44°23' E 013°52'920.8
2018-Jun-20 02:30N 44°15' E 013°59'3020.0
2018-Jun-20 01:00N 43°48' E 014°18'4321.4 030 / 81018.0 28.025.325.0
2018-Jun-19 23:00N 43°18' E 015°00'3617.8 030 / 231017.0 27.022.824.0
2018-Jun-19 21:00N 42°54' E 015°36'4421.8 020 / 131024.0 5.4 23.018.525.0
2018-Jun-19 19:00N 42°36' E 016°30'3115.5
2018-Jun-19 17:00N 42°36' E 017°12'82 5.1 360 / 161022.0 5.4 26.020.224.0
2018-Jun-19 01:00N 41°30' E 018°18'3618.1 080 / 291011.0 27.021.326.0
2018-Jun-18 23:00N 40°54' E 018°24'1918.6 350 / 141011.0 27.025.626.0
2018-Jun-18 22:00N 40°36' E 018°30'4816.0 360 / 131018.0 2.2 25.020.725.0
2018-Jun-18 19:00N 39°48' E 018°30'1312.9 010 / 131017.0 2.2 25.020.725.0
2018-Jun-18 18:00N 39°36' E 018°24'3316.7 320 / 101017.0 5.4 24.019.624.0
2018-Jun-18 16:00N 39°12' E 017°54'4916.2 280 / 61018.0 5.4 24.021.124.0
2018-Jun-18 13:00N 38°36' E 017°12'1918.5 280 / 61011.0 28.026.724.0
2018-Jun-18 12:00N 38°24' E 016°54'1918.5 290 / 171011.0 28.026.724.0
2018-Jun-18 11:00N 38°12' E 016°36'3918.1 290 / 171011.0 28.026.724.0
2018-Jun-18 08:49N 37°52' E 015°53'619.8
2018-Jun-18 08:30N 37°52' E 015°45'918.2
2018-Jun-18 08:00N 37°58' E 015°37'1020.5
2018-Jun-18 07:30N 38°08' E 015°35'714.7
2018-Jun-18 07:01N 38°15' E 015°38'713.1
2018-Jun-18 06:30N 38°22' E 015°39'816.5
2018-Jun-18 06:00N 38°29' E 015°35'917.9
2018-Jun-18 05:30N 38°37' E 015°29'1018.8
2018-Jun-18 04:58N 38°46' E 015°23'20 9.9
2018-Jun-18 03:00N 39°00' E 015°06'5929.6 290 / 91020.0 5.4 23.018.522.0
2018-Jun-18 01:00N 39°42' E 014°12'1127.6 300 / 121020.0 25.023.625.0
2018-Jun-18 00:35N 39°52' E 014°05'2220.2
2018-Jun-17 23:29N 40°07' E 013°44'1223.6
2018-Jun-17 23:00N 40°12' E 013°30'623.1 280 / 101012.0 25.023.624.0
2018-Jun-17 22:43N 40°18' E 013°29'420.5
2018-Jun-17 22:30N 40°21' E 013°25'1020.5
2018-Jun-17 22:00N 40°29' E 013°16'1220.4
2018-Jun-17 21:25N 40°37' E 013°05'819.7
2018-Jun-17 21:00N 40°36' E 012°54'1434.3 290 / 131020.0 23.020.124.0
2018-Jun-17 20:36N 40°49' E 012°49'220.6
2018-Jun-17 20:29N 40°51' E 012°47'1020.6
2018-Jun-17 19:59N 40°59' E 012°39'1120.9
2018-Jun-17 19:27N 41°08' E 012°30'1022.2
2018-Jun-17 19:00N 41°12' E 012°18'2020.1 330 / 20 23.018.5
2018-Jun-17 18:00N 41°30' E 012°06'11 0.6 300 / 211020.0 5.4 25.020.724.0
2018-Jun-17 01:00N 41°36' E 011°54'823.5 020 / 81011.0 23.021.624.0
2018-Jun-17 00:40N 41°34' E 012°04'317.3
2018-Jun-17 00:31N 41°32' E 012°06'2617.5
2018-Jun-16 23:00N 41°12' E 012°30'2916.9 290 / 151011.0 24.022.623.0
2018-Jun-16 21:16N 41°03' E 013°07'416.9
2018-Jun-16 21:00N 41°00' E 013°12'4273.3
2018-Jun-16 21:00N 41°00' E 013°06'1224.3
2018-Jun-16 20:30N 40°56' E 013°21'816.5
2018-Jun-16 20:00N 40°52' E 013°30'816.6
2018-Jun-16 19:31N 40°46' E 013°38'816.5
2018-Jun-16 19:01N 40°40' E 013°46'5312.4
2018-Jun-16 19:00N 40°36' E 013°42'1021.2 330 / 131018.0 26.023.224.0
2018-Jun-16 18:31N 40°37' E 013°55'816.4
2018-Jun-16 18:01N 40°40' E 014°06'816.2
2018-Jun-16 17:31N 40°45' E 014°13'510.5
2018-Jun-16 17:00N 40°50' E 014°16'0 0.3
2018-Jun-16 16:25N 40°50' E 014°16'0 0.0
2018-Jun-16 15:55N 40°50' E 014°16'0 0.0
2018-Jun-16 15:25N 40°50' E 014°16'0 0.0
2018-Jun-16 14:55N 40°50' E 014°16'0 0.0
2018-Jun-16 14:25N 40°50' E 014°16'0 0.0
2018-Jun-16 13:55N 40°50' E 014°16'0 0.0
2018-Jun-16 13:25N 40°50' E 014°16'0 0.0
2018-Jun-16 12:55N 40°50' E 014°16'0 0.0
2018-Jun-16 12:25N 40°50' E 014°16'0 0.0
2018-Jun-16 11:55N 40°50' E 014°16'0 0.0
2018-Jun-16 11:25N 40°50' E 014°16'0 0.0
2018-Jun-16 10:55N 40°50' E 014°16'0 0.0
2018-Jun-16 10:25N 40°50' E 014°16'0 0.0
2018-Jun-16 09:55N 40°50' E 014°16'0 0.0
2018-Jun-16 09:25N 40°50' E 014°16'0 0.0
2018-Jun-16 08:55N 40°50' E 014°16'0 0.0
2018-Jun-16 08:25N 40°50' E 014°16'0 0.0
2018-Jun-16 07:55N 40°50' E 014°16'0 0.0
2018-Jun-16 07:25N 40°50' E 014°16'0 0.0
2018-Jun-16 06:55N 40°50' E 014°16'0 0.0
2018-Jun-16 06:25N 40°50' E 014°16'0 0.0
2018-Jun-16 05:55N 40°50' E 014°16'0 0.0
2018-Jun-16 05:25N 40°50' E 014°16'4 8.3
2018-Jun-16 05:00N 40°48' E 014°12'456.0 080 / 51016.0 5.4 26.020.221.0
2018-Jun-16 04:56N 40°50' E 014°16'0 0.1
2018-Jun-16 04:31N 40°50' E 014°16'2 3.2
2018-Jun-16 04:00N 40°49' E 014°17'713.7
2018-Jun-16 03:30N 40°42' E 014°17'713.9
2018-Jun-16 03:01N 40°35' E 014°17'714.3
2018-Jun-16 02:29N 40°28' E 014°21'715.1
2018-Jun-16 02:00N 40°22' E 014°25'715.0
2018-Jun-16 01:30N 40°15' E 014°29'814.9
2018-Jun-16 01:00N 40°08' E 014°33'3416.9
2018-Jun-15 23:00N 39°36' E 014°48'4813.6 320 / 91016.0 24.019.624.0
2018-Jun-15 19:29N 38°55' E 015°19'714.9
2018-Jun-15 19:00N 38°48' E 015°23'714.6
2018-Jun-15 18:30N 38°42' E 015°27'612.3
2018-Jun-15 18:00N 38°36' E 015°30'2256.6 310 / 141015.0 5.4 23.018.523.0
2018-Jun-15 17:59N 38°35' E 015°32'714.6
2018-Jun-15 17:30N 38°29' E 015°37'814.8
2018-Jun-15 17:00N 38°23' E 015°41'712.8
2018-Jun-15 16:28N 38°16' E 015°41'714.5
2018-Jun-15 15:59N 38°12' E 015°34'0 0.1
2018-Jun-15 13:02N 38°12' E 015°33'0 0.0
2018-Jun-15 12:38N 38°12' E 015°33'0 0.0
2018-Jun-15 12:26N 38°12' E 015°33'0 0.0
2018-Jun-15 11:50N 38°12' E 015°33'0 0.0
2018-Jun-15 11:26N 38°12' E 015°33'3 0.5
2018-Jun-15 06:00N 38°12' E 015°30'3 5.7 270 / 61014.0 5.4 23.018.523.0
2018-Jun-15 05:30N 38°12' E 015°33'1 1.4
2018-Jun-15 05:00N 38°12' E 015°34'4 7.6
2018-Jun-15 04:31N 38°09' E 015°37'815.2
2018-Jun-15 04:01N 38°02' E 015°35'915.5
2018-Jun-15 03:24N 37°52' E 015°34'1015.5
2018-Jun-15 02:45N 37°42' E 015°34'416.0
2018-Jun-15 02:30N 37°38' E 015°33'1316.1
2018-Jun-15 01:42N 37°25' E 015°32'416.2
2018-Jun-15 01:28N 37°22' E 015°32'1020.3
2018-Jun-15 01:00N 37°12' E 015°30'2204.7 290 / 171011.0 22.020.523.0
2018-Jun-15 00:59N 37°14' E 015°31'4623.3
2018-Jun-14 23:00N 36°30' E 015°12'19 9.4 330 / 271015.0 23.018.521.0
2018-Jun-14 21:00N 36°18' E 014°54'31 6.2 330 / 271015.0 23.018.521.0
2018-Jun-14 16:00N 35°54' E 014°30'34 4.3 270 / 131016.0 5.4 24.019.621.0
2018-Jun-14 08:00N 35°54' E 015°12'3919.4 320 / 321008.0 23.0 23.0
2018-Jun-14 06:00N 35°54' E 016°00'4421.9 1014.0 5.4 23.018.523.0
2018-Jun-14 04:00N 35°54' E 016°54'5317.8 310 / 301015.0 5.4 23.018.523.0
2018-Jun-14 01:00N 35°54' E 018°00'5417.9 280 / 141007.0 24.022.624.0
2018-Jun-13 22:00N 35°48' E 019°06'2424.3 300 / 201007.0 26.024.625.0
2018-Jun-13 21:00N 35°48' E 019°36'4421.9
2018-Jun-13 19:00N 35°48' E 020°30'4421.9 330 / 131013.0 24.019.624.0
2018-Jun-13 17:00N 35°48' E 021°24'4422.1
2018-Jun-13 15:00N 35°42' E 022°18'5622.5 300 / 261018.0 5.4 26.018.626.0
2018-Jun-13 12:30N 35°44' E 023°27'714.7
2018-Jun-13 12:00N 35°42' E 023°36'645.6 1012.0 27.025.625.0
2018-Jun-13 11:51N 35°44' E 023°43'719.9
2018-Jun-13 11:30N 35°42' E 023°51'1019.5
2018-Jun-13 10:59N 35°40' E 024°04'1020.3
2018-Jun-13 10:30N 35°38' E 024°15'815.2
2018-Jun-13 10:00N 35°31' E 024°16'15 2.4
2018-Jun-13 04:00N 35°24' E 024°00'11 7.4 260 / 41014.0 5.4 24.019.624.0
2018-Jun-13 02:29N 35°29' E 024°12'3 7.5
2018-Jun-13 02:01N 35°31' E 024°16'3 6.5
2018-Jun-13 01:30N 35°33' E 024°19'3 6.7
2018-Jun-13 01:00N 35°35' E 024°22'3 6.6
2018-Jun-13 00:30N 35°38' E 024°25'3 6.5
2018-Jun-13 00:01N 35°40' E 024°27'4 6.4
2018-Jun-12 23:22N 35°44' E 024°30'2 6.5
2018-Jun-12 23:00N 35°45' E 024°32'3 6.6
2018-Jun-12 22:29N 35°48' E 024°34'3 6.8
2018-Jun-12 22:01N 35°51' E 024°37'3165.4
2018-Jun-12 22:00N 35°48' E 024°36'28 5.6 310 / 101015.0 25.022.224.0
2018-Jun-12 17:00N 36°12' E 024°54'11 5.7 320 / 131014.0 5.4 24.019.624.0
2018-Jun-12 15:00N 36°18' E 025°06'   330 / 191014.0 5.4 24.019.624.0

Dump ship's entire track history